sensor_id;sensor_type;location;lat;lon;timestamp;pressure;altitude;pressure_sealevel;temperature;humidity
39613;BME280;25303;48.896;13.342;2022-07-12T00:01:28;93438.47;;;14.40;63.50
39613;BME280;25303;48.896;13.342;2022-07-12T00:04:11;93435.22;;;14.38;63.74
39613;BME280;25303;48.896;13.342;2022-07-12T00:06:55;93432.66;;;14.38;63.76
39613;BME280;25303;48.896;13.342;2022-07-12T00:09:38;93437.03;;;14.37;63.51
39613;BME280;25303;48.896;13.342;2022-07-12T00:12:21;93440.59;;;14.36;63.27
39613;BME280;25303;48.896;13.342;2022-07-12T00:15:06;93434.59;;;14.36;63.26
39613;BME280;25303;48.896;13.342;2022-07-12T00:17:50;93443.34;;;14.35;62.63
39613;BME280;25303;48.896;13.342;2022-07-12T00:20:33;93433.16;;;14.33;62.00
39613;BME280;25303;48.896;13.342;2022-07-12T00:23:16;93430.56;;;14.33;61.37
39613;BME280;25303;48.896;13.342;2022-07-12T00:25:59;93423.56;;;14.34;61.07
39613;BME280;25303;48.896;13.342;2022-07-12T00:28:45;93426.34;;;14.32;60.58
39613;BME280;25303;48.896;13.342;2022-07-12T00:31:30;93433.16;;;14.33;59.83
39613;BME280;25303;48.896;13.342;2022-07-12T00:34:13;93433.28;;;14.32;59.25
39613;BME280;25303;48.896;13.342;2022-07-12T00:36:57;93432.31;;;14.33;58.96
39613;BME280;25303;48.896;13.342;2022-07-12T00:39:40;93425.53;;;14.32;58.87
39613;BME280;25303;48.896;13.342;2022-07-12T00:42:23;93424.91;;;14.30;58.47
39613;BME280;25303;48.896;13.342;2022-07-12T00:45:07;93421.50;;;14.29;58.37
39613;BME280;25303;48.896;13.342;2022-07-12T00:47:52;93423.44;;;14.27;57.93
39613;BME280;25303;48.896;13.342;2022-07-12T00:50:35;93421.66;;;14.27;57.86
39613;BME280;25303;48.896;13.342;2022-07-12T00:53:18;93423.28;;;14.28;57.86
39613;BME280;25303;48.896;13.342;2022-07-12T00:56:05;93433.47;;;14.30;58.34
39613;BME280;25303;48.896;13.342;2022-07-12T00:58:48;93431.72;;;14.31;58.90
39613;BME280;25303;48.896;13.342;2022-07-12T01:01:31;93424.56;;;14.33;59.12
39613;BME280;25303;48.896;13.342;2022-07-12T01:04:16;93430.69;;;14.32;59.18
39613;BME280;25303;48.896;13.342;2022-07-12T01:07:00;93425.56;;;14.23;58.83
39613;BME280;25303;48.896;13.342;2022-07-12T01:09:44;93428.31;;;14.13;58.81
39613;BME280;25303;48.896;13.342;2022-07-12T01:12:28;93425.25;;;14.10;59.35
39613;BME280;25303;48.896;13.342;2022-07-12T01:15:13;93418.94;;;14.12;59.64
39613;BME280;25303;48.896;13.342;2022-07-12T01:17:56;93419.56;;;14.15;59.89
39613;BME280;25303;48.896;13.342;2022-07-12T01:20:41;93423.78;;;14.16;59.96
39613;BME280;25303;48.896;13.342;2022-07-12T01:23:25;93423.13;;;14.13;59.76
39613;BME280;25303;48.896;13.342;2022-07-12T01:26:09;93423.00;;;14.07;59.60
39613;BME280;25303;48.896;13.342;2022-07-12T01:28:53;93417.16;;;14.05;59.81
39613;BME280;25303;48.896;13.342;2022-07-12T01:31:37;93403.44;;;14.04;59.89
39613;BME280;25303;48.896;13.342;2022-07-12T01:34:20;93412.63;;;14.07;60.13
39613;BME280;25303;48.896;13.342;2022-07-12T01:37:04;93413.59;;;14.06;60.05
39613;BME280;25303;48.896;13.342;2022-07-12T01:39:50;93409.41;;;14.05;59.99
39613;BME280;25303;48.896;13.342;2022-07-12T01:42:35;93411.97;;;14.05;59.97
39613;BME280;25303;48.896;13.342;2022-07-12T01:45:18;93411.97;;;14.05;59.94
39613;BME280;25303;48.896;13.342;2022-07-12T01:48:02;93404.53;;;14.02;59.62
39613;BME280;25303;48.896;13.342;2022-07-12T01:50:45;93407.28;;;13.92;59.56
39613;BME280;25303;48.896;13.342;2022-07-12T01:53:30;93405.38;;;13.86;59.44
39613;BME280;25303;48.896;13.342;2022-07-12T01:56:15;93400.53;;;13.82;59.73
39613;BME280;25303;48.896;13.342;2022-07-12T01:58:59;93403.09;;;13.82;59.59
39613;BME280;25303;48.896;13.342;2022-07-12T02:01:43;93404.72;;;13.75;59.63
39613;BME280;25303;48.896;13.342;2022-07-12T02:04:27;93409.25;;;13.65;59.77
39613;BME280;25303;48.896;13.342;2022-07-12T02:07:10;93408.13;;;13.59;60.01
39613;BME280;25303;48.896;13.342;2022-07-12T02:09:54;93402.47;;;13.56;60.25
39613;BME280;25303;48.896;13.342;2022-07-12T02:12:39;93406.81;;;13.55;60.40
39613;BME280;25303;48.896;13.342;2022-07-12T02:15:22;93413.94;;;13.53;60.34
39613;BME280;25303;48.896;13.342;2022-07-12T02:18:05;93407.78;;;13.54;60.51
39613;BME280;25303;48.896;13.342;2022-07-12T02:20:48;93404.88;;;13.57;60.72
39613;BME280;25303;48.896;13.342;2022-07-12T02:23:31;93403.59;;;13.61;60.50
39613;BME280;25303;48.896;13.342;2022-07-12T02:26:14;93406.34;;;13.60;60.79
39613;BME280;25303;48.896;13.342;2022-07-12T02:28:59;93413.44;;;13.58;60.82
39613;BME280;25303;48.896;13.342;2022-07-12T02:31:43;93416.03;;;13.58;60.99
39613;BME280;25303;48.896;13.342;2022-07-12T02:34:26;93408.59;;;13.63;61.25
39613;BME280;25303;48.896;13.342;2022-07-12T02:37:09;93410.06;;;13.65;61.27
39613;BME280;25303;48.896;13.342;2022-07-12T02:39:52;93412.31;;;13.68;60.99
39613;BME280;25303;48.896;13.342;2022-07-12T02:42:56;93421.56;;;13.71;60.97
39613;BME280;25303;48.896;13.342;2022-07-12T02:45:40;93415.41;;;13.72;60.95
39613;BME280;25303;48.896;13.342;2022-07-12T02:48:25;93414.59;;;13.72;61.01
39613;BME280;25303;48.896;13.342;2022-07-12T02:51:08;93410.38;;;13.71;60.78
39613;BME280;25303;48.896;13.342;2022-07-12T02:53:52;93425.91;;;13.71;60.77
39613;BME280;25303;48.896;13.342;2022-07-12T02:56:35;93415.72;;;13.69;60.10
39613;BME280;25303;48.896;13.342;2022-07-12T02:59:18;93413.63;;;13.64;59.82
39613;BME280;25303;48.896;13.342;2022-07-12T03:02:03;93420.88;;;13.61;60.32
39613;BME280;25303;48.896;13.342;2022-07-12T03:04:46;93422.19;;;13.65;60.60
39613;BME280;25303;48.896;13.342;2022-07-12T03:07:29;93422.03;;;13.66;60.71
39613;BME280;25303;48.896;13.342;2022-07-12T03:10:13;93427.38;;;13.65;60.35
39613;BME280;25303;48.896;13.342;2022-07-12T03:12:56;93432.38;;;13.58;60.06
39613;BME280;25303;48.896;13.342;2022-07-12T03:15:39;93431.38;;;13.51;60.36
39613;BME280;25303;48.896;13.342;2022-07-12T03:18:29;93442.22;;;13.46;60.23
39613;BME280;25303;48.896;13.342;2022-07-12T03:21:13;93440.59;;;13.45;60.56
39613;BME280;25303;48.896;13.342;2022-07-12T03:23:56;93443.19;;;13.45;60.46
39613;BME280;25303;48.896;13.342;2022-07-12T03:26:40;93444.31;;;13.43;60.47
39613;BME280;25303;48.896;13.342;2022-07-12T03:29:23;93444.78;;;13.38;60.62
39613;BME280;25303;48.896;13.342;2022-07-12T03:32:07;93443.16;;;13.37;60.65
39613;BME280;25303;48.896;13.342;2022-07-12T03:34:52;93452.03;;;13.34;60.61
39613;BME280;25303;48.896;13.342;2022-07-12T03:41:35;93451.53;;;13.22;60.50
39613;BME280;25303;48.896;13.342;2022-07-12T03:44:18;93458.13;;;13.17;60.54
39613;BME280;25303;48.896;13.342;2022-07-12T03:47:01;93463.28;;;13.09;60.71
39613;BME280;25303;48.896;13.342;2022-07-12T03:49:44;93463.09;;;13.02;60.96
39613;BME280;25303;48.896;13.342;2022-07-12T03:52:29;93466.78;;;12.99;61.10
39613;BME280;25303;48.896;13.342;2022-07-12T03:55:12;93459.84;;;13.00;61.30
39613;BME280;25303;48.896;13.342;2022-07-12T03:57:56;93462.13;;;13.03;61.45
39613;BME280;25303;48.896;13.342;2022-07-12T04:00:39;93463.75;;;13.04;61.60
39613;BME280;25303;48.896;13.342;2022-07-12T04:03:24;93455.69;;;13.07;61.41
39613;BME280;25303;48.896;13.342;2022-07-12T04:06:07;93457.94;;;13.10;61.51
39613;BME280;25303;48.896;13.342;2022-07-12T04:08:51;93460.22;;;13.13;61.18
39613;BME280;25303;48.896;13.342;2022-07-12T04:11:34;93460.88;;;13.15;61.36
39613;BME280;25303;48.896;13.342;2022-07-12T04:14:18;93457.00;;;13.19;61.36
39613;BME280;25303;48.896;13.342;2022-07-12T04:17:01;93460.09;;;13.23;60.95
39613;BME280;25303;48.896;13.342;2022-07-12T04:19:44;93458.31;;;13.24;60.87
39613;BME280;25303;48.896;13.342;2022-07-12T04:22:27;93466.72;;;13.26;60.42
39613;BME280;25303;48.896;13.342;2022-07-12T04:25:12;93475.13;;;13.28;60.57
39613;BME280;25303;48.896;13.342;2022-07-12T04:27:55;93465.44;;;13.30;60.53
39613;BME280;25303;48.896;13.342;2022-07-12T04:30:38;93465.59;;;13.28;60.49
39613;BME280;25303;48.896;13.342;2022-07-12T04:33:21;93462.53;;;13.33;60.94
39613;BME280;25303;48.896;13.342;2022-07-12T04:36:04;93457.72;;;13.38;60.97
39613;BME280;25303;48.896;13.342;2022-07-12T04:38:47;93457.25;;;13.43;61.16
39613;BME280;25303;48.896;13.342;2022-07-12T04:41:33;93458.56;;;13.47;61.26
39613;BME280;25303;48.896;13.342;2022-07-12T04:44:16;93458.72;;;13.54;61.44
39613;BME280;25303;48.896;13.342;2022-07-12T04:46:59;93457.09;;;13.61;61.61
39613;BME280;25303;48.896;13.342;2022-07-12T04:49:42;93461.47;;;13.68;61.49
39613;BME280;25303;48.896;13.342;2022-07-12T04:52:25;93468.44;;;13.76;61.54
39613;BME280;25303;48.896;13.342;2022-07-12T04:55:09;93470.41;;;13.82;61.95
39613;BME280;25303;48.896;13.342;2022-07-12T04:57:53;93471.53;;;13.88;61.95
39613;BME280;25303;48.896;13.342;2022-07-12T05:00:36;93467.97;;;13.89;61.87
39613;BME280;25303;48.896;13.342;2022-07-12T05:03:19;93473.97;;;13.90;61.95
39613;BME280;25303;48.896;13.342;2022-07-12T05:06:03;93476.38;;;13.91;62.18
39613;BME280;25303;48.896;13.342;2022-07-12T05:08:46;93477.69;;;13.95;62.17
39613;BME280;25303;48.896;13.342;2022-07-12T05:11:29;93479.94;;;13.98;62.16
39613;BME280;25303;48.896;13.342;2022-07-12T05:14:13;93479.63;;;14.02;62.39
39613;BME280;25303;48.896;13.342;2022-07-12T05:16:56;93483.69;;;14.04;62.68
39613;BME280;25303;48.896;13.342;2022-07-12T05:19:39;93480.59;;;14.09;62.20
39613;BME280;25303;48.896;13.342;2022-07-12T05:22:23;93484.63;;;14.11;62.02
39613;BME280;25303;48.896;13.342;2022-07-12T05:25:06;93481.06;;;14.12;61.99
39613;BME280;25303;48.896;13.342;2022-07-12T05:27:50;93486.25;;;14.12;61.86
39613;BME280;25303;48.896;13.342;2022-07-12T05:30:34;93482.38;;;14.17;62.01
39613;BME280;25303;48.896;13.342;2022-07-12T05:33:17;93483.31;;;14.24;61.96
39613;BME280;25303;48.896;13.342;2022-07-12T05:36:00;93485.91;;;14.32;61.87
39613;BME280;25303;48.896;13.342;2022-07-12T05:38:44;93495.47;;;14.40;61.81
39613;BME280;25303;48.896;13.342;2022-07-12T05:41:27;93490.25;;;14.48;61.87
39613;BME280;25303;48.896;13.342;2022-07-12T05:44:10;93488.63;;;14.55;61.87
39613;BME280;25303;48.896;13.342;2022-07-12T05:46:54;93493.97;;;14.62;61.56
39613;BME280;25303;48.896;13.342;2022-07-12T05:49:37;93499.31;;;14.69;61.48
39613;BME280;25303;48.896;13.342;2022-07-12T05:52:20;93500.44;;;14.74;61.27
39613;BME280;25303;48.896;13.342;2022-07-12T05:55:21;93500.09;;;14.78;61.06
39613;BME280;25303;48.896;13.342;2022-07-12T05:58:04;93496.03;;;14.83;61.24
39613;BME280;25303;48.896;13.342;2022-07-12T06:00:47;93498.94;;;14.88;61.73
39613;BME280;25303;48.896;13.342;2022-07-12T06:03:32;93497.78;;;14.91;61.25
39613;BME280;25303;48.896;13.342;2022-07-12T06:06:15;93503.47;;;14.95;61.46
39613;BME280;25303;48.896;13.342;2022-07-12T06:08:58;93503.13;;;14.98;61.26
39613;BME280;25303;48.896;13.342;2022-07-12T06:11:41;93504.41;;;15.02;61.01
39613;BME280;25303;48.896;13.342;2022-07-12T06:14:24;93512.69;;;15.06;60.29
39613;BME280;25303;48.896;13.342;2022-07-12T06:17:07;93510.69;;;15.08;60.42
39613;BME280;25303;48.896;13.342;2022-07-12T06:19:52;93512.81;;;15.12;60.34
39613;BME280;25303;48.896;13.342;2022-07-12T06:22:35;93515.69;;;15.17;59.90
39613;BME280;25303;48.896;13.342;2022-07-12T06:25:18;93514.38;;;15.22;59.51
39613;BME280;25303;48.896;13.342;2022-07-12T06:28:21;93514.06;;;15.25;59.05
39613;BME280;25303;48.896;13.342;2022-07-12T06:31:04;93517.94;;;15.29;58.93
39613;BME280;25303;48.896;13.342;2022-07-12T06:33:47;93513.38;;;15.31;58.45
39613;BME280;25303;48.896;13.342;2022-07-12T06:36:32;93520.66;;;15.36;58.75
39613;BME280;25303;48.896;13.342;2022-07-12T06:39:15;93520.94;;;15.41;58.63
39613;BME280;25303;48.896;13.342;2022-07-12T06:41:59;93528.53;;;15.50;58.63
39613;BME280;25303;48.896;13.342;2022-07-12T06:44:45;93529.94;;;15.61;58.53
39613;BME280;25303;48.896;13.342;2022-07-12T06:47:28;93531.50;;;15.71;58.16
39613;BME280;25303;48.896;13.342;2022-07-12T06:50:11;93533.41;;;15.77;57.80
39613;BME280;25303;48.896;13.342;2022-07-12T06:52:55;93531.13;;;15.82;57.48
39613;BME280;25303;48.896;13.342;2022-07-12T06:55:38;93533.22;;;15.87;57.00
39613;BME280;25303;48.896;13.342;2022-07-12T06:58:21;93529.66;;;15.88;56.47
39613;BME280;25303;48.896;13.342;2022-07-12T07:01:04;93529.47;;;15.89;56.49
39613;BME280;25303;48.896;13.342;2022-07-12T07:03:47;93528.47;;;15.90;56.25
39613;BME280;25303;48.896;13.342;2022-07-12T07:06:30;93530.94;;;15.92;56.38
39613;BME280;25303;48.896;13.342;2022-07-12T07:09:15;93534.81;;;15.96;55.82
39613;BME280;25303;48.896;13.342;2022-07-12T07:11:58;93533.94;;;16.04;55.70
39613;BME280;25303;48.896;13.342;2022-07-12T07:14:41;93533.22;;;16.10;55.19
39613;BME280;25303;48.896;13.342;2022-07-12T07:17:24;93528.84;;;16.10;54.00
39613;BME280;25303;48.896;13.342;2022-07-12T07:20:09;93532.88;;;16.13;54.46
39613;BME280;25303;48.896;13.342;2022-07-12T07:22:52;93527.97;;;16.18;53.82
39613;BME280;25303;48.896;13.342;2022-07-12T07:25:37;93533.44;;;16.23;54.17
39613;BME280;25303;48.896;13.342;2022-07-12T07:28:20;93535.53;;;16.28;53.73
39613;BME280;25303;48.896;13.342;2022-07-12T07:31:23;93531.44;;;16.34;53.62
39613;BME280;25303;48.896;13.342;2022-07-12T07:34:05;93531.09;;;16.37;52.77
39613;BME280;25303;48.896;13.342;2022-07-12T07:36:48;93530.91;;;16.38;52.64
39613;BME280;25303;48.896;13.342;2022-07-12T07:39:31;93529.22;;;16.46;52.61
39613;BME280;25303;48.896;13.342;2022-07-12T07:42:16;93532.91;;;16.51;52.64
39613;BME280;25303;48.896;13.342;2022-07-12T07:44:59;93529.59;;;16.58;53.39
39613;BME280;25303;48.896;13.342;2022-07-12T07:47:59;93536.50;;;16.65;53.67
39613;BME280;25303;48.896;13.342;2022-07-12T07:51:02;93538.06;;;16.75;52.85
39613;BME280;25303;48.896;13.342;2022-07-12T07:53:45;93535.38;;;16.83;52.93
39613;BME280;25303;48.896;13.342;2022-07-12T07:56:28;93533.69;;;16.90;52.62
39613;BME280;25303;48.896;13.342;2022-07-12T07:59:13;93532.28;;;17.03;52.75
39613;BME280;25303;48.896;13.342;2022-07-12T08:01:56;93541.63;;;17.12;52.86
39613;BME280;25303;48.896;13.342;2022-07-12T08:04:39;93534.88;;;17.18;52.88
39613;BME280;25303;48.896;13.342;2022-07-12T08:07:22;93532.38;;;17.24;52.51
39613;BME280;25303;48.896;13.342;2022-07-12T08:10:25;93536.47;;;17.34;52.81
39613;BME280;25303;48.896;13.342;2022-07-12T08:13:09;93544.56;;;17.39;52.56
39613;BME280;25303;48.896;13.342;2022-07-12T08:15:53;93541.59;;;17.42;52.92
39613;BME280;25303;48.896;13.342;2022-07-12T08:18:36;93538.44;;;17.46;52.83
39613;BME280;25303;48.896;13.342;2022-07-12T08:21:19;93542.94;;;17.53;52.91
39613;BME280;25303;48.896;13.342;2022-07-12T08:24:02;93536.81;;;17.60;52.23
39613;BME280;25303;48.896;13.342;2022-07-12T08:26:46;93542.53;;;17.71;51.81
39613;BME280;25303;48.896;13.342;2022-07-12T08:29:30;93538.56;;;17.75;51.75
39613;BME280;25303;48.896;13.342;2022-07-12T08:32:14;93546.56;;;17.73;52.17
39613;BME280;25303;48.896;13.342;2022-07-12T08:34:57;93546.03;;;17.78;51.26
39613;BME280;25303;48.896;13.342;2022-07-12T08:37:40;93542.66;;;17.84;51.66
39613;BME280;25303;48.896;13.342;2022-07-12T08:40:23;93545.69;;;17.88;51.73
39613;BME280;25303;48.896;13.342;2022-07-12T08:43:06;93545.53;;;17.89;51.29
39613;BME280;25303;48.896;13.342;2022-07-12T08:45:49;93542.75;;;17.91;50.70
39613;BME280;25303;48.896;13.342;2022-07-12T08:48:34;93545.91;;;18.01;50.84
39613;BME280;25303;48.896;13.342;2022-07-12T08:51:18;93539.25;;;18.20;49.55
39613;BME280;25303;48.896;13.342;2022-07-12T08:54:05;93534.47;;;18.46;49.97
39613;BME280;25303;48.896;13.342;2022-07-12T08:56:48;93538.25;;;18.72;49.64
39613;BME280;25303;48.896;13.342;2022-07-12T08:59:32;93530.56;;;18.85;48.79
39613;BME280;25303;48.896;13.342;2022-07-12T09:02:15;93536.19;;;18.89;48.46
39613;BME280;25303;48.896;13.342;2022-07-12T09:05:09;93543.59;;;18.85;47.35
39613;BME280;25303;48.896;13.342;2022-07-12T09:08:02;93539.03;;;18.94;47.64
39613;BME280;25303;48.896;13.342;2022-07-12T09:10:56;93539.66;;;18.96;47.76
39613;BME280;25303;48.896;13.342;2022-07-12T09:13:49;93544.50;;;18.99;47.87
39613;BME280;25303;48.896;13.342;2022-07-12T09:16:32;93543.81;;;18.90;47.96
39613;BME280;25303;48.896;13.342;2022-07-12T09:19:17;93557.63;;;18.84;48.12
39613;BME280;25303;48.896;13.342;2022-07-12T09:22:03;93550.94;;;18.75;48.47
39613;BME280;25303;48.896;13.342;2022-07-12T09:24:47;93555.94;;;18.70;48.62
39613;BME280;25303;48.896;13.342;2022-07-12T09:27:30;93557.28;;;18.65;48.90
39613;BME280;25303;48.896;13.342;2022-07-12T09:30:13;93553.69;;;18.66;49.51
39613;BME280;25303;48.896;13.342;2022-07-12T09:33:01;93552.09;;;18.94;49.40
39613;BME280;25303;48.896;13.342;2022-07-12T09:36:02;93554.97;;;19.41;47.47
39613;BME280;25303;48.896;13.342;2022-07-12T09:38:54;93552.50;;;19.68;47.43
39613;BME280;25303;48.896;13.342;2022-07-12T09:41:42;93557.13;;;19.72;46.32
39613;BME280;25303;48.896;13.342;2022-07-12T09:44:27;93555.91;;;19.68;46.37
39613;BME280;25303;48.896;13.342;2022-07-12T09:47:13;93556.75;;;19.76;47.12
39613;BME280;25303;48.896;13.342;2022-07-12T09:49:57;93551.63;;;20.09;46.35
39613;BME280;25303;48.896;13.342;2022-07-12T09:52:41;93554.09;;;20.51;46.50
39613;BME280;25303;48.896;13.342;2022-07-12T09:55:29;93548.50;;;20.81;45.82
39613;BME280;25303;48.896;13.342;2022-07-12T09:58:13;93551.09;;;20.88;45.36
39613;BME280;25303;48.896;13.342;2022-07-12T10:00:59;93545.88;;;20.81;45.06
39613;BME280;25303;48.896;13.342;2022-07-12T10:03:43;93543.84;;;20.63;44.82
39613;BME280;25303;48.896;13.342;2022-07-12T10:06:28;93540.22;;;20.71;45.27
39613;BME280;25303;48.896;13.342;2022-07-12T10:09:17;93550.31;;;20.81;45.08
39613;BME280;25303;48.896;13.342;2022-07-12T10:12:02;93546.25;;;20.71;43.92
39613;BME280;25303;48.896;13.342;2022-07-12T10:14:57;93556.94;;;20.56;44.09
39613;BME280;25303;48.896;13.342;2022-07-12T10:17:44;93550.47;;;20.45;44.47
39613;BME280;25303;48.896;13.342;2022-07-12T10:20:41;93560.31;;;20.37;45.00
39613;BME280;25303;48.896;13.342;2022-07-12T10:23:30;93556.88;;;20.29;44.91
39613;BME280;25303;48.896;13.342;2022-07-12T10:26:36;93553.06;;;20.18;44.36
39613;BME280;25303;48.896;13.342;2022-07-12T10:29:25;93550.41;;;20.12;45.02
39613;BME280;25303;48.896;13.342;2022-07-12T10:32:17;93548.00;;;20.10;44.41
39613;BME280;25303;48.896;13.342;2022-07-12T10:35:04;93553.66;;;20.14;45.40
39613;BME280;25303;48.896;13.342;2022-07-12T10:38:13;93558.31;;;20.32;45.12
39613;BME280;25303;48.896;13.342;2022-07-12T10:40:57;93545.63;;;20.69;45.04
39613;BME280;25303;48.896;13.342;2022-07-12T10:43:40;93544.22;;;21.20;44.68
39613;BME280;25303;48.896;13.342;2022-07-12T10:46:58;93539.06;;;21.66;42.82
39613;BME280;25303;48.896;13.342;2022-07-12T10:49:49;93542.25;;;22.13;41.72
39613;BME280;25303;48.896;13.342;2022-07-12T10:52:32;93543.09;;;22.46;40.26
39613;BME280;25303;48.896;13.342;2022-07-12T10:55:16;93542.69;;;22.42;39.91
39613;BME280;25303;48.896;13.342;2022-07-12T10:58:00;93548.09;;;22.15;39.49
39613;BME280;25303;48.896;13.342;2022-07-12T11:00:43;93546.00;;;21.92;40.18
39613;BME280;25303;48.896;13.342;2022-07-12T11:03:31;93549.09;;;21.76;40.45
39613;BME280;25303;48.896;13.342;2022-07-12T11:06:16;93556.41;;;21.53;41.04
39613;BME280;25303;48.896;13.342;2022-07-12T11:09:03;93550.41;;;21.39;41.62
39613;BME280;25303;48.896;13.342;2022-07-12T11:11:47;93551.41;;;21.38;41.84
39613;BME280;25303;48.896;13.342;2022-07-12T11:14:31;93544.84;;;21.81;42.79
39613;BME280;25303;48.896;13.342;2022-07-12T11:17:20;93540.28;;;22.41;41.71
39613;BME280;25303;48.896;13.342;2022-07-12T11:20:06;93547.75;;;22.69;40.50
39613;BME280;25303;48.896;13.342;2022-07-12T11:22:51;93542.88;;;22.73;39.99
39613;BME280;25303;48.896;13.342;2022-07-12T11:25:36;93543.69;;;22.48;39.63
39613;BME280;25303;48.896;13.342;2022-07-12T11:28:19;93544.31;;;22.37;39.33
39613;BME280;25303;48.896;13.342;2022-07-12T11:31:04;93538.47;;;22.35;39.45
39613;BME280;25303;48.896;13.342;2022-07-12T11:33:48;93537.53;;;22.61;39.16
39613;BME280;25303;48.896;13.342;2022-07-12T11:36:34;93533.97;;;22.99;39.21
39613;BME280;25303;48.896;13.342;2022-07-12T11:39:17;93537.38;;;23.25;37.47
39613;BME280;25303;48.896;13.342;2022-07-12T11:42:00;93533.72;;;23.26;37.39
39613;BME280;25303;48.896;13.342;2022-07-12T11:44:44;93539.44;;;23.23;37.79
39613;BME280;25303;48.896;13.342;2022-07-12T11:47:32;93536.03;;;23.16;38.36
39613;BME280;25303;48.896;13.342;2022-07-12T11:50:24;93543.31;;;23.14;38.11
39613;BME280;25303;48.896;13.342;2022-07-12T11:53:34;93541.25;;;23.60;38.48
39613;BME280;25303;48.896;13.342;2022-07-12T11:56:29;93540.59;;;24.02;36.69
39613;BME280;25303;48.896;13.342;2022-07-12T11:59:21;93545.25;;;24.00;36.16
39613;BME280;25303;48.896;13.342;2022-07-12T12:02:06;93539.41;;;23.79;36.99
39613;BME280;25303;48.896;13.342;2022-07-12T12:04:51;93539.31;;;23.55;36.92
39613;BME280;25303;48.896;13.342;2022-07-12T12:07:35;93541.50;;;23.40;37.41
39613;BME280;25303;48.896;13.342;2022-07-12T12:10:20;93542.72;;;23.37;37.51
39613;BME280;25303;48.896;13.342;2022-07-12T12:13:03;93540.09;;;23.37;37.99
39613;BME280;25303;48.896;13.342;2022-07-12T12:15:50;93545.00;;;23.33;37.56
39613;BME280;25303;48.896;13.342;2022-07-12T12:18:35;93539.09;;;23.13;37.07
39613;BME280;25303;48.896;13.342;2022-07-12T12:21:25;93539.06;;;22.94;37.62
39613;BME280;25303;48.896;13.342;2022-07-12T12:24:10;93534.34;;;22.77;37.76
39613;BME280;25303;48.896;13.342;2022-07-12T12:26:54;93538.75;;;22.58;37.72
39613;BME280;25303;48.896;13.342;2022-07-12T12:29:41;93531.38;;;22.49;37.64
39613;BME280;25303;48.896;13.342;2022-07-12T12:35:11;93529.53;;;23.00;37.79
39613;BME280;25303;48.896;13.342;2022-07-12T12:37:56;93535.78;;;23.43;37.68
39613;BME280;25303;48.896;13.342;2022-07-12T12:40:39;93540.25;;;23.61;37.71
39613;BME280;25303;48.896;13.342;2022-07-12T12:43:26;93543.13;;;23.90;37.66
39613;BME280;25303;48.896;13.342;2022-07-12T12:46:09;93546.69;;;24.14;37.04
39613;BME280;25303;48.896;13.342;2022-07-12T12:48:52;93538.97;;;24.31;36.88
39613;BME280;25303;48.896;13.342;2022-07-12T12:51:53;93542.63;;;24.72;37.09
39613;BME280;25303;48.896;13.342;2022-07-12T12:54:37;93536.91;;;25.23;36.30
39613;BME280;25303;48.896;13.342;2022-07-12T12:57:20;93540.69;;;25.39;35.76
39613;BME280;25303;48.896;13.342;2022-07-12T13:00:04;93546.06;;;25.56;35.24
39613;BME280;25303;48.896;13.342;2022-07-12T13:02:47;93541.22;;;25.65;35.22
39613;BME280;25303;48.896;13.342;2022-07-12T13:05:31;93545.91;;;25.75;34.88
39613;BME280;25303;48.896;13.342;2022-07-12T13:08:16;93541.34;;;25.70;34.69
39613;BME280;25303;48.896;13.342;2022-07-12T13:10:59;93540.53;;;25.58;34.76
39613;BME280;25303;48.896;13.342;2022-07-12T13:14:00;93557.72;;;25.37;35.31
39613;BME280;25303;48.896;13.342;2022-07-12T13:16:43;93553.88;;;25.27;35.31
39613;BME280;25303;48.896;13.342;2022-07-12T13:19:26;93550.44;;;25.15;35.33
39613;BME280;25303;48.896;13.342;2022-07-12T13:22:09;93547.19;;;25.37;35.28
39613;BME280;25303;48.896;13.342;2022-07-12T13:24:54;93543.16;;;25.58;35.48
39613;BME280;25303;48.896;13.342;2022-07-12T13:27:38;93549.72;;;25.96;35.08
39613;BME280;25303;48.896;13.342;2022-07-12T13:30:21;93556.22;;;26.17;34.53
39613;BME280;25303;48.896;13.342;2022-07-12T13:33:04;93547.97;;;26.02;34.18
39613;BME280;25303;48.896;13.342;2022-07-12T13:35:47;93555.56;;;25.69;34.03
39613;BME280;25303;48.896;13.342;2022-07-12T13:38:30;93560.16;;;25.38;34.66
39613;BME280;25303;48.896;13.342;2022-07-12T13:41:15;93549.16;;;25.17;35.36
39613;BME280;25303;48.896;13.342;2022-07-12T13:43:58;93553.19;;;25.44;35.41
39613;BME280;25303;48.896;13.342;2022-07-12T13:46:43;93558.69;;;25.83;35.03
39613;BME280;25303;48.896;13.342;2022-07-12T13:49:26;93553.66;;;26.22;34.77
39613;BME280;25303;48.896;13.342;2022-07-12T13:52:09;93548.19;;;26.58;33.92
39613;BME280;25303;48.896;13.342;2022-07-12T13:54:52;93553.91;;;27.01;34.38
39613;BME280;25303;48.896;13.342;2022-07-12T13:57:38;93547.72;;;27.29;33.45
39613;BME280;25303;48.896;13.342;2022-07-12T14:00:21;93546.13;;;27.28;33.04
39613;BME280;25303;48.896;13.342;2022-07-12T14:03:04;93546.47;;;27.15;33.07
39613;BME280;25303;48.896;13.342;2022-07-12T14:05:47;93547.31;;;27.38;33.02
39613;BME280;25303;48.896;13.342;2022-07-12T14:08:31;93548.16;;;27.83;32.90
39613;BME280;25303;48.896;13.342;2022-07-12T14:11:15;93547.13;;;28.33;32.01
39613;BME280;25303;48.896;13.342;2022-07-12T14:14:00;93552.00;;;28.42;30.89
39613;BME280;25303;48.896;13.342;2022-07-12T14:16:43;93549.19;;;28.04;30.82
39613;BME280;25303;48.896;13.342;2022-07-12T14:19:26;93555.13;;;27.67;32.09
39613;BME280;25303;48.896;13.342;2022-07-12T14:22:09;93561.88;;;27.40;32.47
39613;BME280;25303;48.896;13.342;2022-07-12T14:24:52;93557.53;;;27.12;32.59
39613;BME280;25303;48.896;13.342;2022-07-12T14:27:36;93561.88;;;26.84;32.26
39613;BME280;25303;48.896;13.342;2022-07-12T14:30:20;93556.31;;;26.22;32.19